Time;durP1;ratioP1;P1;durP2;ratioP2;P2;SDS_P1;SDS_P2;PMS_P1;PMS_P2;Temp;Humidity;BMP_temperature;BMP_pressure;BME280_temperature;BME280_humidity;BME280_pressure;Samples;Min_cycle;Max_cycle;Signal;HPM_P1;HPM_P2
2023/02/22 00:00:18;;;;;;;13.93;5.00;;;10.10;99.90;;;;;;5033746;28;20922;-53
2023/02/22 00:02:47;;;;;;;20.27;5.17;;;10.10;99.90;;;;;;5034031;28;20403;-51
2023/02/22 00:05:15;;;;;;;21.73;6.23;;;10.30;99.90;;;;;;5033829;28;20492;-51
2023/02/22 00:07:43;;;;;;;22.97;6.40;;;10.10;99.90;;;;;;5034244;28;20468;-51
2023/02/22 00:10:13;;;;;;;27.47;6.40;;;10.20;99.90;;;;;;5032533;28;20470;-52
2023/02/22 00:12:41;;;;;;;26.63;5.27;;;10.00;99.90;;;;;;5033938;28;20410;-52
2023/02/22 00:15:12;;;;;;;24.50;5.60;;;10.20;99.90;;;;;;5032411;28;20521;-52
2023/02/22 00:17:39;;;;;;;27.17;4.73;;;10.10;99.90;;;;;;5033840;28;20418;-52
2023/02/22 00:20:07;;;;;;;26.57;5.20;;;10.30;99.90;;;;;;5032155;28;20547;-52
2023/02/22 00:22:34;;;;;;;22.53;7.10;;;10.10;99.90;;;;;;5034016;28;20436;-52
2023/02/22 00:25:03;;;;;;;18.47;4.90;;;10.00;99.90;;;;;;5033668;28;20463;-52
2023/02/22 00:27:31;;;;;;;25.90;5.97;;;9.90;99.90;;;;;;5033701;28;20442;-52
2023/02/22 00:29:58;;;;;;;20.27;5.17;;;10.10;99.90;;;;;;5031870;28;21026;-52
2023/02/22 00:32:26;;;;;;;20.20;5.13;;;9.80;99.90;;;;;;5033749;28;20405;-52
2023/02/22 00:34:53;;;;;;;24.73;5.13;;;9.90;99.90;;;;;;5032565;28;20602;-52
2023/02/22 00:37:20;;;;;;;24.13;5.07;;;9.90;99.90;;;;;;5032500;28;20422;-50
2023/02/22 00:39:48;;;;;;;30.87;6.20;;;9.90;99.90;;;;;;5031925;28;20422;-52
2023/02/22 00:42:17;;;;;;;30.23;5.23;;;9.80;99.90;;;;;;5065561;28;20916;-52
2023/02/22 00:44:45;;;;;;;25.93;5.80;;;9.80;99.90;;;;;;5031893;28;20450;-52
2023/02/22 00:47:12;;;;;;;21.40;5.27;;;9.80;99.90;;;;;;5031957;28;20480;-52
2023/02/22 00:49:39;;;;;;;22.97;4.90;;;9.80;99.90;;;;;;5031640;28;20536;-52
2023/02/22 00:52:07;;;;;;;29.73;6.40;;;9.70;99.90;;;;;;5031956;28;20480;-52
2023/02/22 00:54:37;;;;;;;21.57;4.47;;;9.50;99.90;;;;;;5032022;28;20964;-52
2023/02/22 00:57:04;;;;;;;25.80;6.13;;;9.60;99.90;;;;;;5031660;28;20551;-52
2023/02/22 00:59:31;;;;;;;23.93;5.30;;;9.80;99.90;;;;;;5031382;28;20442;-52
2023/02/22 01:01:59;;;;;;;16.47;5.10;;;9.40;99.90;;;;;;5064848;28;20430;-52
2023/02/22 01:04:26;;;;;;;25.60;6.87;;;9.50;99.90;;;;;;5032595;28;20454;-52
2023/02/22 01:06:54;;;;;;;26.63;5.70;;;9.40;99.90;;;;;;5031827;28;20448;-52
2023/02/22 01:09:21;;;;;;;21.33;5.80;;;9.40;99.90;;;;;;5032365;28;20447;-52
2023/02/22 01:11:48;;;;;;;23.73;6.10;;;9.50;99.90;;;;;;5031367;28;20450;-52
2023/02/22 01:14:17;;;;;;;23.00;4.77;;;9.60;99.90;;;;;;5031425;28;21022;-52
2023/02/22 01:16:44;;;;;;;26.73;5.93;;;9.30;99.90;;;;;;5064534;28;20477;-52
2023/02/22 01:19:12;;;;;;;22.10;5.60;;;9.30;99.90;;;;;;5030927;28;20455;-52
2023/02/22 01:21:40;;;;;;;21.67;5.50;;;9.40;99.90;;;;;;5031291;28;20455;-52
2023/02/22 01:24:07;;;;;;;21.57;5.47;;;9.40;99.90;;;;;;5031330;28;20454;-52
2023/02/22 01:26:34;;;;;;;27.23;6.67;;;9.30;99.90;;;;;;5031159;28;20467;-52
2023/02/22 01:29:01;;;;;;;24.90;6.20;;;9.30;99.90;;;;;;5030739;28;20483;-51
2023/02/22 01:31:31;;;;;;;18.40;5.57;;;9.50;99.90;;;;;;5031004;28;20452;-52
2023/02/22 01:33:58;;;;;;;24.10;5.90;;;9.20;99.90;;;;;;5031131;28;20768;-52
2023/02/22 01:36:26;;;;;;;26.63;6.17;;;9.40;99.90;;;;;;5064250;28;20446;-52
2023/02/22 01:38:53;;;;;;;15.67;4.57;;;9.50;99.90;;;;;;5031959;28;20736;-52
2023/02/22 01:41:21;;;;;;;28.83;6.03;;;8.70;99.90;;;;;;5031114;28;20521;-52
2023/02/22 01:43:48;;;;;;;28.53;5.83;;;9.30;99.90;;;;;;5030802;28;20475;-50
2023/02/22 01:46:22;;;;;;;26.93;6.20;;;9.30;99.90;;;;;;5030842;28;20459;-52
2023/02/22 01:48:53;;;;;;;28.10;5.73;;;9.40;99.90;;;;;;5030527;28;20476;-52
2023/02/22 01:51:24;;;;;;;20.90;5.70;;;9.50;99.90;;;;;;5030895;28;20450;-52
2023/02/22 01:53:55;;;;;;;24.20;8.10;;;9.60;99.90;;;;;;5030725;28;20461;-52
2023/02/22 01:56:24;;;;;;;24.47;5.53;;;9.30;99.90;;;;;;5031991;28;20528;-51
2023/02/22 01:58:56;;;;;;;32.43;6.70;;;9.50;99.90;;;;;;5030439;28;20867;-52
2023/02/22 02:01:25;;;;;;;21.10;6.83;;;9.10;99.90;;;;;;5030611;28;20475;-52
2023/02/22 02:03:56;;;;;;;20.30;5.63;;;9.30;99.90;;;;;;5031730;28;20525;-52
2023/02/22 02:06:26;;;;;;;21.80;6.87;;;9.40;99.90;;;;;;5030489;28;20486;-52
2023/02/22 02:08:59;;;;;;;26.13;5.63;;;9.40;99.90;;;;;;5030279;28;20420;-52
2023/02/22 02:11:27;;;;;;;29.50;6.03;;;9.90;99.90;;;;;;5032051;28;20432;-50
2023/02/22 02:13:58;;;;;;;29.83;5.73;;;9.40;99.90;;;;;;5030895;28;20422;-51
2023/02/22 02:16:35;;;;;;;19.50;5.43;;;9.50;99.90;;;;;;5030614;28;20919;-52
2023/02/22 02:19:03;;;;;;;32.70;6.77;;;9.30;99.90;;;;;;5030325;28;20462;-52
2023/02/22 02:21:52;;;;;;;20.87;4.90;;;9.30;99.90;;;;;;5035036;28;20475;-52
2023/02/22 02:25:02;;;;;;;20.47;6.23;;;9.40;99.90;;;;;;5035984;28;20489;-52
2023/02/22 02:27:43;;;;;;;26.60;5.87;;;9.30;99.90;;;;;;5034783;28;20501;-52
2023/02/22 02:30:43;;;;;;;22.60;5.53;;;9.30;99.90;;;;;;5034191;28;20910;-52
2023/02/22 02:33:16;;;;;;;26.97;5.80;;;9.40;99.90;;;;;;5023708;28;20575;-51
2023/02/22 02:35:50;;;;;;;15.67;5.40;;;9.50;99.90;;;;;;5034524;28;20544;-52
2023/02/22 02:38:30;;;;;;;21.13;5.23;;;9.60;99.90;;;;;;5034092;28;21058;-52
2023/02/22 02:41:05;;;;;;;20.47;6.30;;;9.30;99.90;;;;;;5034420;28;20447;-52
2023/02/22 02:43:37;;;;;;;17.53;5.40;;;9.20;99.90;;;;;;5034190;28;20459;-52
2023/02/22 02:46:10;;;;;;;25.80;6.73;;;9.30;99.90;;;;;;5034165;28;20536;-52
2023/02/22 02:48:43;;;;;;;23.87;6.60;;;9.20;99.90;;;;;;5033973;28;20422;-52
2023/02/22 02:51:13;;;;;;;23.30;5.40;;;9.50;99.90;;;;;;5034274;28;20471;-52
2023/02/22 02:53:43;;;;;;;21.73;5.97;;;9.20;99.90;;;;;;5034050;28;20430;-52
2023/02/22 02:56:10;;;;;;;21.07;6.67;;;9.20;99.90;;;;;;5034254;28;20520;-52
2023/02/22 02:58:47;;;;;;;17.33;4.70;;;9.50;99.90;;;;;;5033633;28;20514;-52
2023/02/22 03:01:24;;;;;;;29.27;6.20;;;9.10;99.90;;;;;;5034076;28;20478;-52
2023/02/22 03:04:14;;;;;;;24.73;5.93;;;9.30;99.90;;;;;;5033933;28;20533;-52
2023/02/22 03:07:15;;;;;;;26.93;7.30;;;9.50;99.90;;;;;;5035043;28;20939;-50
2023/02/22 03:09:57;;;;;;;24.27;6.93;;;9.20;99.90;;;;;;5023147;28;20457;-52
2023/02/22 03:12:38;;;;;;;20.83;5.90;;;9.40;99.90;;;;;;5066803;28;20812;-51
2023/02/22 03:15:20;;;;;;;18.03;5.20;;;9.50;99.90;;;;;;5067022;28;20980;-52
2023/02/22 03:17:54;;;;;;;30.20;6.13;;;9.30;99.90;;;;;;5033737;28;20444;-51
2023/02/22 03:20:30;;;;;;;22.27;6.07;;;9.00;99.90;;;;;;5034593;28;20402;-52
2023/02/22 03:23:04;;;;;;;17.43;5.73;;;9.10;99.90;;;;;;5033618;28;20429;-52
2023/02/22 03:25:35;;;;;;;23.73;5.53;;;9.20;99.90;;;;;;5033439;28;21004;-52
2023/02/22 03:28:10;;;;;;;25.03;6.53;;;9.00;99.90;;;;;;5034678;28;20451;-51
2023/02/22 03:30:41;;;;;;;19.50;5.80;;;9.10;99.90;;;;;;5033530;28;20422;-51
2023/02/22 03:33:13;;;;;;;25.20;7.00;;;9.30;99.90;;;;;;5065623;28;20816;-50
2023/02/22 03:35:47;;;;;;;29.23;5.43;;;9.30;99.90;;;;;;5033220;28;20579;-51
2023/02/22 03:38:17;;;;;;;20.50;6.17;;;9.30;99.90;;;;;;5032969;28;20466;-52
2023/02/22 03:40:51;;;;;;;21.57;5.60;;;9.10;99.90;;;;;;5033266;28;20430;-52
2023/02/22 03:43:23;;;;;;;15.20;5.20;;;9.30;99.90;;;;;;5033193;28;20874;-51
2023/02/22 03:45:53;;;;;;;18.47;4.90;;;9.20;99.90;;;;;;5032919;28;20541;-52
2023/02/22 03:48:26;;;;;;;19.50;6.30;;;9.50;99.90;;;;;;5065935;28;20439;-52
2023/02/22 03:50:54;;;;;;;25.67;7.40;;;9.30;99.90;;;;;;5034415;28;20468;-51
2023/02/22 03:53:23;;;;;;;18.83;6.37;;;9.30;99.90;;;;;;5033009;28;20451;-52
2023/02/22 03:55:55;;;;;;;27.87;10.97;;;9.10;99.90;;;;;;5032888;28;20449;-53
2023/02/22 03:58:24;;;;;;;23.90;6.57;;;9.10;99.90;;;;;;5032591;28;20470;-53
2023/02/22 04:00:52;;;;;;;20.40;5.20;;;9.20;99.90;;;;;;5034226;28;20406;-51
2023/02/22 04:03:19;;;;;;;31.57;6.30;;;9.40;99.90;;;;;;5032506;28;20430;-52
2023/02/22 04:05:46;;;;;;;23.40;6.37;;;9.20;99.90;;;;;;5032367;28;20487;-52
2023/02/22 04:08:15;;;;;;;24.07;6.33;;;9.60;99.90;;;;;;5033422;28;20493;-52
2023/02/22 04:10:42;;;;;;;23.20;6.90;;;9.40;99.90;;;;;;5032324;28;20422;-52
2023/02/22 04:13:10;;;;;;;25.87;6.47;;;9.20;99.90;;;;;;5032341;28;20484;-52
2023/02/22 04:15:40;;;;;;;20.93;6.73;;;9.30;99.90;;;;;;5032529;28;20468;-52
2023/02/22 04:18:10;;;;;;;22.83;6.20;;;9.30;99.90;;;;;;5032198;28;20527;-51
2023/02/22 04:20:37;;;;;;;26.17;6.57;;;9.20;99.90;;;;;;5032331;28;20434;-52
2023/02/22 04:23:09;;;;;;;26.83;6.90;;;9.30;99.90;;;;;;5032558;28;20506;-53
2023/02/22 04:25:40;;;;;;;17.53;5.43;;;9.30;99.90;;;;;;5032152;28;20493;-53
2023/02/22 04:28:16;;;;;;;21.27;6.17;;;9.20;99.90;;;;;;5032318;28;20825;-52
2023/02/22 04:30:49;;;;;;;19.03;5.63;;;9.20;99.90;;;;;;5032359;28;20440;-53
2023/02/22 04:33:19;;;;;;;18.87;5.67;;;9.20;99.90;;;;;;5032304;28;20426;-53
2023/02/22 04:35:46;;;;;;;26.33;7.67;;;8.90;99.90;;;;;;5032140;28;20509;-53
2023/02/22 04:38:14;;;;;;;24.73;5.83;;;9.00;99.90;;;;;;5032028;28;20433;-52
2023/02/22 04:40:42;;;;;;;41.73;6.67;;;9.50;99.90;;;;;;5032062;28;20455;-52
2023/02/22 04:43:09;;;;;;;21.33;6.43;;;9.10;99.90;;;;;;5031751;28;20521;-52
2023/02/22 04:45:36;;;;;;;17.70;5.23;;;9.20;99.90;;;;;;5031978;28;20483;-52
2023/02/22 04:48:06;;;;;;;24.40;6.10;;;9.10;99.90;;;;;;5031830;28;20448;-52
2023/02/22 04:50:32;;;;;;;18.67;6.23;;;9.10;99.90;;;;;;5031855;28;20427;-52
2023/02/22 04:52:59;;;;;;;27.50;6.10;;;9.10;99.90;;;;;;5031885;28;20512;-52
2023/02/22 04:55:28;;;;;;;36.43;7.20;;;9.20;99.90;;;;;;5065073;28;20475;-52
2023/02/22 04:57:57;;;;;;;19.70;5.97;;;9.30;99.90;;;;;;5031967;28;20452;-52
2023/02/22 05:00:24;;;;;;;23.53;7.03;;;9.10;99.90;;;;;;5031720;28;20454;-52
2023/02/22 05:02:55;;;;;;;24.00;7.90;;;9.20;99.90;;;;;;5032087;28;20422;-52
2023/02/22 05:05:23;;;;;;;27.37;6.80;;;8.90;99.90;;;;;;5060996;22;20581;-49
2023/02/22 05:07:50;;;;;;;23.37;6.13;;;9.30;99.90;;;;;;5052323;28;20417;-50
2023/02/22 05:10:19;;;;;;;28.87;7.33;;;9.00;99.90;;;;;;5034084;28;20439;-49
2023/02/22 05:12:47;;;;;;;29.37;6.83;;;9.30;99.90;;;;;;5052057;28;20835;-49
2023/02/22 05:15:19;;;;;;;24.67;7.20;;;9.30;99.90;;;;;;5052162;28;20425;-50
2023/02/22 05:17:46;;;;;;;22.90;7.50;;;9.10;99.90;;;;;;5034275;28;20456;-49
2023/02/22 05:20:21;;;;;;;24.40;6.70;;;9.40;99.90;;;;;;5051718;28;20770;-50
2023/02/22 05:22:50;;;;;;;21.63;6.57;;;9.20;99.90;;;;;;5034245;28;20438;-49
2023/02/22 05:25:19;;;;;;;19.73;6.50;;;9.40;99.90;;;;;;5051816;28;20547;-49
2023/02/22 05:27:50;;;;;;;23.83;6.50;;;9.00;99.90;;;;;;5033839;28;20454;-50
2023/02/22 05:30:24;;;;;;;37.67;7.30;;;9.20;99.90;;;;;;5034171;28;20446;-50
2023/02/22 05:32:51;;;;;;;23.83;7.70;;;9.10;99.90;;;;;;5034084;28;20454;-50
2023/02/22 05:35:22;;;;;;;23.70;6.77;;;9.30;99.90;;;;;;5033635;28;20506;-50
2023/02/22 05:37:49;;;;;;;24.77;6.50;;;9.20;99.90;;;;;;5052137;28;20884;-49
2023/02/22 05:40:18;;;;;;;36.40;7.60;;;9.50;99.90;;;;;;5033400;28;20462;-50
2023/02/22 05:42:46;;;;;;;26.67;7.67;;;9.30;99.90;;;;;;5051781;28;20894;-49
2023/02/22 05:45:16;;;;;;;25.27;6.43;;;8.80;99.90;;;;;;5033610;28;20479;-50
2023/02/22 05:47:45;;;;;;;33.63;6.83;;;9.20;99.90;;;;;;5051875;28;20488;-49
2023/02/22 05:50:15;;;;;;;26.80;7.67;;;9.20;99.90;;;;;;5051146;28;20431;-50
2023/02/22 05:52:42;;;;;;;28.17;6.60;;;9.30;99.90;;;;;;5051383;28;20437;-50
2023/02/22 05:55:12;;;;;;;21.13;7.10;;;9.50;99.90;;;;;;5032922;28;20469;-50
2023/02/22 05:57:39;;;;;;;33.17;8.57;;;9.30;99.90;;;;;;5051480;28;20434;-49
2023/02/22 06:00:08;;;;;;;28.50;7.43;;;9.20;99.90;;;;;;5051681;28;20427;-49
2023/02/22 06:02:41;;;;;;;24.07;6.63;;;9.40;99.90;;;;;;5051635;28;20419;-49
2023/02/22 06:05:10;;;;;;;32.17;8.90;;;9.20;99.90;;;;;;5051212;28;20557;-49
2023/02/22 06:07:37;;;;;;;31.40;9.63;;;9.20;99.90;;;;;;5051254;28;21026;-49
2023/02/22 06:10:04;;;;;;;29.03;8.40;;;9.20;99.90;;;;;;5051798;28;20665;-49
2023/02/22 06:12:31;;;;;;;20.80;7.40;;;9.00;99.90;;;;;;5051443;28;20429;-51
2023/02/22 06:14:58;;;;;;;21.00;7.83;;;9.30;99.90;;;;;;5033626;28;21120;-49
2023/02/22 06:17:25;;;;;;;26.07;7.87;;;9.20;99.90;;;;;;5051631;28;20437;-49
2023/02/22 06:19:54;;;;;;;18.03;7.13;;;9.00;99.90;;;;;;5032877;28;20447;-50
2023/02/22 06:22:25;;;;;;;24.83;8.23;;;9.20;99.90;;;;;;5050892;28;20401;-50
2023/02/22 06:24:52;;;;;;;27.50;8.33;;;9.10;99.90;;;;;;5050906;28;20564;-50
2023/02/22 06:27:19;;;;;;;29.13;7.83;;;9.40;99.90;;;;;;5033034;28;20531;-49
2023/02/22 06:29:46;;;;;;;21.20;7.83;;;9.50;99.90;;;;;;5050531;28;20406;-50
2023/02/22 06:32:16;;;;;;;30.77;10.00;;;9.50;99.90;;;;;;5032693;28;20451;-50
2023/02/22 06:34:45;;;;;;;35.00;10.67;;;9.40;99.90;;;;;;5050475;28;20417;-50
2023/02/22 06:37:14;;;;;;;29.60;8.90;;;9.60;99.90;;;;;;5050929;28;20435;-51
2023/02/22 06:39:45;;;;;;;17.70;7.63;;;9.40;99.90;;;;;;5050503;28;20458;-50
2023/02/22 06:42:11;;;;;;;21.03;7.23;;;9.40;99.90;;;;;;5050514;28;20418;-50
2023/02/22 06:44:39;;;;;;;28.00;7.33;;;9.60;99.90;;;;;;5050346;28;20495;-51
2023/02/22 06:47:06;;;;;;;24.10;6.93;;;9.50;99.90;;;;;;5032039;28;20547;-50
2023/02/22 06:49:33;;;;;;;26.27;7.27;;;9.50;99.90;;;;;;5049743;28;20426;-50
2023/02/22 06:52:00;;;;;;;21.63;6.70;;;9.70;99.90;;;;;;5050555;28;20409;-50
2023/02/22 06:54:27;;;;;;;33.87;7.30;;;9.80;99.90;;;;;;5032646;28;20925;-50
2023/02/22 06:56:58;;;;;;;30.63;8.10;;;9.60;99.90;;;;;;5032646;28;20463;-50
2023/02/22 06:59:27;;;;;;;30.97;7.63;;;9.80;99.90;;;;;;5031873;28;20429;-50
2023/02/22 07:01:55;;;;;;;29.43;9.27;;;9.70;99.90;;;;;;5032613;28;20451;-50
2023/02/22 07:04:22;;;;;;;38.20;8.10;;;9.70;99.90;;;;;;5050239;28;20484;-51
2023/02/22 07:06:50;;;;;;;35.53;7.10;;;9.80;99.90;;;;;;5034068;28;20517;-50
2023/02/22 07:09:18;;;;;;;22.30;7.30;;;9.70;99.90;;;;;;5054037;28;20488;-50
2023/02/22 07:11:45;;;;;;;28.27;7.30;;;9.70;99.90;;;;;;5054189;28;20465;-50
2023/02/22 07:14:16;;;;;;;26.07;6.70;;;10.10;99.90;;;;;;5036582;28;20417;-49
2023/02/22 07:16:46;;;;;;;23.93;6.73;;;10.20;99.90;;;;;;5036462;28;20463;-50
2023/02/22 07:19:13;;;;;;;24.80;7.23;;;10.00;99.90;;;;;;5054593;28;20434;-50
2023/02/22 07:21:42;;;;;;;28.73;7.70;;;9.90;99.90;;;;;;5054194;28;20450;-49
2023/02/22 07:24:09;;;;;;;22.50;7.80;;;10.00;99.90;;;;;;5054446;28;20488;-50
2023/02/22 07:26:40;;;;;;;33.13;8.83;;;10.00;99.90;;;;;;5054052;28;20506;-50
2023/02/22 07:29:07;;;;;;;24.47;7.67;;;10.00;99.90;;;;;;5054323;28;20541;-49
2023/02/22 07:31:37;;;;;;;41.80;8.47;;;10.00;99.90;;;;;;5053822;28;20535;-49
2023/02/22 07:34:04;;;;;;;26.33;7.27;;;10.20;99.90;;;;;;5035972;28;20503;-49
2023/02/22 07:36:31;;;;;;;31.80;8.00;;;10.40;99.90;;;;;;5053824;28;20493;-50
2023/02/22 07:38:58;;;;;;;23.97;8.40;;;10.30;99.90;;;;;;5035263;28;20760;-50
2023/02/22 07:41:27;;;;;;;25.17;8.77;;;10.40;99.90;;;;;;5035499;28;20463;-50
2023/02/22 07:43:54;;;;;;;23.57;8.13;;;10.40;99.90;;;;;;5053451;28;20829;-49
2023/02/22 07:46:21;;;;;;;28.23;8.17;;;10.30;99.90;;;;;;5052980;28;20989;-48
2023/02/22 07:48:49;;;;;;;28.30;7.73;;;10.40;99.90;;;;;;5053058;28;20518;-50
2023/02/22 07:51:19;;;;;;;21.17;9.17;;;10.60;99.90;;;;;;5053614;28;20435;-49
2023/02/22 07:53:46;;;;;;;33.33;9.70;;;10.40;99.90;;;;;;5035060;28;20931;-49
2023/02/22 07:56:13;;;;;;;24.33;8.90;;;10.50;99.90;;;;;;5053124;28;21020;-50
2023/02/22 07:58:40;;;;;;;21.03;8.70;;;10.60;99.90;;;;;;5052869;28;20970;-50
2023/02/22 08:01:07;;;;;;;24.90;8.53;;;10.30;99.90;;;;;;5052736;28;20465;-48
2023/02/22 08:03:36;;;;;;;22.20;8.00;;;10.40;99.90;;;;;;5052987;28;20522;-51
2023/02/22 08:06:08;;;;;;;25.43;8.17;;;10.50;99.90;;;;;;5052432;28;20491;-52
2023/02/22 08:08:37;;;;;;;26.70;7.20;;;10.60;99.90;;;;;;5052662;28;20473;-50
2023/02/22 08:11:04;;;;;;;24.83;7.10;;;10.70;99.90;;;;;;5035322;28;20842;-51
2023/02/22 08:13:31;;;;;;;28.23;7.67;;;10.70;99.90;;;;;;5034827;28;20539;-50
2023/02/22 08:15:58;;;;;;;21.30;7.03;;;10.60;99.90;;;;;;5052702;28;20496;-50
2023/02/22 08:18:26;;;;;;;30.07;8.20;;;10.60;99.90;;;;;;5051695;28;20437;-49
2023/02/22 08:20:53;;;;;;;25.40;7.23;;;10.90;99.90;;;;;;5052841;28;20437;-49
2023/02/22 08:23:25;;;;;;;21.23;6.60;;;10.90;99.90;;;;;;5034763;28;20466;-51
2023/02/22 08:25:55;;;;;;;25.37;6.77;;;10.10;99.90;;;;;;5035082;28;21011;-49
2023/02/22 08:28:24;;;;;;;19.90;7.10;;;10.60;99.90;;;;;;5052279;28;20410;-51
2023/02/22 08:30:51;;;;;;;21.83;6.40;;;10.60;99.90;;;;;;5052824;28;20959;-51
2023/02/22 08:33:19;;;;;;;24.83;7.13;;;10.70;99.90;;;;;;5033923;28;20739;-50
2023/02/22 08:35:48;;;;;;;28.60;6.40;;;10.60;99.90;;;;;;5034434;28;20275;-51
2023/02/22 08:38:18;;;;;;;31.03;7.67;;;10.90;99.90;;;;;;5052528;28;20795;-50
2023/02/22 08:40:48;;;;;;;26.93;8.30;;;10.90;99.90;;;;;;5052679;28;20430;-50
2023/02/22 08:43:15;;;;;;;30.43;6.40;;;11.00;99.90;;;;;;5052415;28;20534;-49
2023/02/22 08:45:42;;;;;;;27.47;6.90;;;11.10;99.90;;;;;;5033840;28;20551;-50
2023/02/22 08:48:09;;;;;;;61.90;37.27;;;10.80;99.90;;;;;;5034133;28;20549;-49
2023/02/22 08:50:37;;;;;;;24.37;11.30;;;10.90;99.90;;;;;;5034602;28;20442;-50
2023/02/22 08:53:05;;;;;;;27.70;7.60;;;11.10;99.90;;;;;;5034852;28;20494;-49
2023/02/22 08:55:34;;;;;;;26.87;6.73;;;11.00;99.90;;;;;;5052722;28;20453;-50
2023/02/22 08:58:04;;;;;;;19.03;6.20;;;11.00;99.90;;;;;;5052850;28;20421;-50
2023/02/22 09:00:33;;;;;;;26.23;6.70;;;11.00;99.90;;;;;;5034034;28;20453;-50
2023/02/22 09:03:00;;;;;;;30.03;8.00;;;11.10;99.90;;;;;;5034228;28;20497;-50
2023/02/22 09:05:27;;;;;;;23.77;7.87;;;11.10;99.90;;;;;;5052129;28;20531;-49
2023/02/22 09:07:54;;;;;;;32.93;6.80;;;11.20;99.90;;;;;;5051663;28;20550;-50
2023/02/22 09:10:24;;;;;;;24.60;5.87;;;11.40;99.90;;;;;;5051761;28;20484;-50
2023/02/22 09:12:51;;;;;;;22.10;6.50;;;11.60;99.90;;;;;;5034088;28;20436;-50
2023/02/22 09:15:19;;;;;;;16.43;5.10;;;11.40;99.90;;;;;;5034160;28;20473;-50
2023/02/22 09:17:46;;;;;;;36.03;7.90;;;11.40;99.90;;;;;;5052206;28;20436;-49
2023/02/22 09:20:14;;;;;;;26.13;6.83;;;11.60;99.90;;;;;;5033403;28;20485;-50
2023/02/22 09:22:41;;;;;;;22.57;7.13;;;11.60;99.90;;;;;;5051840;28;20442;-49
2023/02/22 09:25:08;;;;;;;28.13;7.90;;;11.70;99.90;;;;;;5033544;28;20469;-50
2023/02/22 09:27:35;;;;;;;22.17;6.80;;;11.60;99.90;;;;;;5052015;28;20913;-49
2023/02/22 09:30:03;;;;;;;23.60;6.77;;;11.00;99.90;;;;;;5051802;28;20527;-50
2023/02/22 09:32:31;;;;;;;17.83;5.60;;;11.60;99.90;;;;;;5032838;28;20459;-49
2023/02/22 09:34:58;;;;;;;19.50;6.63;;;11.60;99.90;;;;;;5028238;28;20493;-48
2023/02/22 09:37:25;;;;;;;24.17;7.23;;;11.70;99.90;;;;;;5050132;28;20423;-50
2023/02/22 09:39:52;;;;;;;26.30;8.30;;;11.80;99.90;;;;;;5037121;28;20957;-49
2023/02/22 09:42:27;;;;;;;21.77;7.50;;;11.80;99.90;;;;;;5029628;28;20812;-52
2023/02/22 09:45:06;;;;;;;19.27;6.27;;;11.80;99.90;;;;;;5040500;28;20458;-50
2023/02/22 09:47:41;;;;;;;24.73;6.33;;;11.90;99.90;;;;;;5051211;28;20455;-49
2023/02/22 09:50:14;;;;;;;32.33;7.20;;;11.90;99.90;;;;;;5050752;28;20446;-50
2023/02/22 09:52:52;;;;;;;21.37;6.77;;;12.20;99.90;;;;;;5031719;28;20423;-50
2023/02/22 09:55:32;;;;;;;19.20;5.80;;;12.20;99.90;;;;;;5027667;28;20541;-50
2023/02/22 09:58:03;;;;;;;21.90;6.63;;;12.10;99.90;;;;;;5030379;28;20461;-50
2023/02/22 10:00:33;;;;;;;24.00;7.03;;;12.30;99.90;;;;;;5032720;28;20481;-51
2023/02/22 10:03:15;;;;;;;24.60;7.00;;;12.20;99.90;;;;;;5032857;28;21039;-50
2023/02/22 10:05:45;;;;;;;23.43;8.40;;;12.20;99.90;;;;;;5028070;28;20884;-51
2023/02/22 10:08:14;;;;;;;24.47;8.00;;;12.20;99.90;;;;;;5047157;28;20723;-50
2023/02/22 10:10:44;;;;;;;22.87;8.00;;;12.40;99.90;;;;;;5037695;28;20528;-50
2023/02/22 10:13:21;;;;;;;17.67;6.03;;;12.40;99.90;;;;;;5032393;28;20432;-50
2023/02/22 10:15:54;;;;;;;20.20;6.33;;;12.40;99.90;;;;;;5033218;28;20467;-50
2023/02/22 10:18:58;;;;;;;21.70;7.53;;;12.40;99.90;;;;;;5031357;28;20423;-49
2023/02/22 10:21:47;;;;;;;18.80;6.20;;;12.30;99.90;;;;;;5044186;28;20460;-50
2023/02/22 10:24:27;;;;;;;28.87;7.03;;;12.50;99.90;;;;;;5050878;28;20456;-50
2023/02/22 10:26:56;;;;;;;24.60;6.87;;;12.40;99.90;;;;;;5032283;28;20855;-50
2023/02/22 10:29:32;;;;;;;14.33;5.03;;;12.30;99.90;;;;;;5043690;28;20816;-51
2023/02/22 10:32:02;;;;;;;18.80;7.37;;;12.40;99.90;;;;;;5032372;28;20433;-50
2023/02/22 10:34:33;;;;;;;27.50;7.40;;;12.50;99.90;;;;;;5032765;28;20531;-50
2023/02/22 10:37:16;;;;;;;21.23;5.47;;;12.10;99.90;;;;;;5050284;28;20456;-50
2023/02/22 10:39:45;;;;;;;17.17;6.30;;;12.50;99.90;;;;;;5032265;28;20439;-51
2023/02/22 10:42:12;;;;;;;20.67;5.80;;;12.70;99.90;;;;;;5052946;28;20561;-51
2023/02/22 10:44:40;;;;;;;25.13;6.27;;;12.60;99.90;;;;;;5036364;28;20442;-50
2023/02/22 10:47:11;;;;;;;17.97;6.10;;;12.50;99.90;;;;;;5036184;28;20547;-49
2023/02/22 10:49:41;;;;;;;23.37;6.73;;;12.60;99.90;;;;;;5035232;28;20449;-51
2023/02/22 10:52:17;;;;;;;17.23;4.47;;;12.60;99.90;;;;;;5034827;28;20792;-50
2023/02/22 10:54:47;;;;;;;21.53;6.23;;;12.70;99.90;;;;;;5053182;28;20532;-50
2023/02/22 10:57:19;;;;;;;17.77;5.60;;;13.00;99.90;;;;;;5053203;28;20760;-49
2023/02/22 10:59:46;;;;;;;23.40;5.87;;;12.80;99.90;;;;;;5035944;28;20770;-51
2023/02/22 11:02:20;;;;;;;16.40;5.70;;;12.80;99.90;;;;;;5054187;28;20789;-50
2023/02/22 11:04:49;;;;;;;21.00;5.27;;;12.90;99.90;;;;;;5054113;28;20792;-49
2023/02/22 11:07:23;;;;;;;14.87;5.63;;;12.90;99.90;;;;;;5052524;28;20531;-49
2023/02/22 11:09:53;;;;;;;20.73;5.90;;;12.80;99.90;;;;;;5053615;28;20418;-49
2023/02/22 11:12:26;;;;;;;15.77;5.07;;;12.80;99.90;;;;;;5054324;28;20437;-49
2023/02/22 11:14:53;;;;;;;19.27;4.30;;;12.70;99.90;;;;;;5036197;28;20420;-50
2023/02/22 11:17:30;;;;;;;14.63;5.10;;;12.80;99.80;;;;;;5035412;28;20490;-50
2023/02/22 11:19:57;;;;;;;21.00;5.33;;;13.20;98.90;;;;;;5050930;28;20671;-50
2023/02/22 11:22:29;;;;;;;21.17;5.00;;;13.00;99.00;;;;;;5054014;28;20412;-49
2023/02/22 11:25:01;;;;;;;16.67;5.00;;;13.00;99.10;;;;;;5053689;28;20416;-51
2023/02/22 11:27:33;;;;;;;28.00;5.90;;;13.00;99.30;;;;;;5053209;28;20482;-51
2023/02/22 11:30:12;;;;;;;20.40;5.90;;;13.10;99.20;;;;;;5034120;28;20970;-51
2023/02/22 11:32:46;;;;;;;12.70;5.03;;;12.90;99.20;;;;;;5035156;28;20671;-50
2023/02/22 11:35:31;;;;;;;16.30;5.30;;;13.00;99.30;;;;;;5035724;28;20473;-49
2023/02/22 11:38:16;;;;;;;15.10;4.33;;;13.00;99.20;;;;;;5053796;28;20485;-50
2023/02/22 11:40:43;;;;;;;16.37;4.63;;;13.00;99.30;;;;;;5035355;28;20430;-50
2023/02/22 11:43:16;;;;;;;16.70;4.77;;;13.10;99.40;;;;;;5052906;28;20466;-50
2023/02/22 11:46:01;;;;;;;15.33;4.97;;;13.20;99.50;;;;;;5053057;28;20477;-50
2023/02/22 11:48:34;;;;;;;19.63;5.10;;;13.20;99.40;;;;;;5020560;28;20819;-50
2023/02/22 11:51:16;;;;;;;24.00;6.17;;;13.10;99.50;;;;;;5053158;28;20465;-51
2023/02/22 11:54:04;;;;;;;31.97;6.07;;;13.00;99.40;;;;;;5052049;28;20453;-49
2023/02/22 11:56:35;;;;;;;23.03;6.70;;;13.10;99.40;;;;;;5020647;28;20535;-50
2023/02/22 11:59:15;;;;;;;18.97;5.47;;;13.20;99.60;;;;;;5050027;28;20458;-50
2023/02/22 12:01:50;;;;;;;16.73;5.10;;;13.10;99.50;;;;;;5037601;28;20481;-50
2023/02/22 12:04:40;;;;;;;24.42;6.43;;;13.10;99.50;;;;;;5033224;28;20966;-48
2023/02/22 12:07:25;;;;;;;25.27;8.53;;;13.70;99.10;;;;;;5034890;28;20767;-51
2023/02/22 12:10:00;;;;;;;24.87;6.80;;;13.40;99.20;;;;;;5052715;28;20439;-50
2023/02/22 12:12:37;;;;;;;24.37;6.73;;;13.30;99.20;;;;;;5034984;28;20918;-49
2023/02/22 12:15:12;;;;;;;17.80;4.40;;;13.30;99.30;;;;;;5052049;28;20833;-49
2023/02/22 12:17:49;;;;;;;21.97;5.63;;;13.20;99.20;;;;;;5049247;28;20420;-52
2023/02/22 12:20:21;;;;;;;17.93;4.97;;;12.90;99.10;;;;;;5034434;28;20970;-50
2023/02/22 12:22:59;;;;;;;21.53;6.30;;;13.10;99.30;;;;;;5052183;28;20462;-49
2023/02/22 12:25:33;;;;;;;11.80;4.90;;;13.30;99.50;;;;;;5045859;28;20541;-51
2023/02/22 12:28:10;;;;;;;22.97;6.73;;;13.10;99.60;;;;;;5047569;28;20474;-50
2023/02/22 12:30:40;;;;;;;18.97;5.27;;;13.20;99.20;;;;;;5035343;28;20432;-49
2023/02/22 12:33:13;;;;;;;22.30;6.23;;;13.00;99.10;;;;;;5052356;28;20453;-49
2023/02/22 12:35:45;;;;;;;18.93;6.37;;;13.00;98.90;;;;;;5034999;28;20664;-50
2023/02/22 12:38:18;;;;;;;23.23;5.67;;;13.10;98.90;;;;;;5052665;28;20421;-49
2023/02/22 12:40:55;;;;;;;16.77;5.47;;;13.00;98.80;;;;;;5034398;28;20453;-50
2023/02/22 12:43:28;;;;;;;17.87;4.97;;;13.10;98.80;;;;;;5039897;28;20863;-51
2023/02/22 12:46:03;;;;;;;21.70;6.18;;;13.20;98.90;;;;;;5044912;28;20431;-50
2023/02/22 12:48:38;;;;;;;17.83;4.40;;;13.90;98.10;;;;;;5033667;28;20261;-50
2023/02/22 12:51:20;;;;;;;16.03;4.80;;;13.50;97.90;;;;;;5033964;28;20454;-51
2023/02/22 12:53:56;;;;;;;14.00;5.80;;;13.40;98.00;;;;;;5033990;28;20491;-50
2023/02/22 12:56:29;;;;;;;23.00;5.37;;;13.30;98.10;;;;;;5037428;28;20452;-51
2023/02/22 12:59:03;;;;;;;22.73;8.23;;;13.40;98.10;;;;;;5031580;28;20490;-49
2023/02/22 13:01:34;;;;;;;14.50;5.40;;;13.20;98.00;;;;;;5051594;28;20969;-50